Time;durP1;ratioP1;P1;durP2;ratioP2;P2;SDS_P1;SDS_P2;PMS_P1;PMS_P2;Temp;Humidity;BMP_temperature;BMP_pressure;BME280_temperature;BME280_humidity;BME280_pressure;Samples;Min_cycle;Max_cycle;Signal;HPM_P1;HPM_P2
2022/04/30 00:02:20;;;;;;;9.50;6.55;;;16.20;81.60;;;;;;6225438;28;20139;-82
2022/04/30 00:05:21;;;;;;;7.50;5.22;;;16.20;81.30;;;;;;6224785;28;20050;-82
2022/04/30 00:08:32;;;;;;;11.45;6.03;;;16.20;81.30;;;;;;6224446;28;20049;-82
2022/04/30 00:11:34;;;;;;;12.10;6.88;;;16.10;81.20;;;;;;6246260;28;20068;-82
2022/04/30 00:14:38;;;;;;;16.00;6.72;;;16.10;81.20;;;;;;6249896;28;20458;-82
2022/04/30 00:17:40;;;;;;;15.25;6.55;;;16.10;81.20;;;;;;6249095;28;20044;-82
2022/04/30 00:20:45;;;;;;;11.48;5.57;;;16.10;81.20;;;;;;6249522;28;20136;-82
2022/04/30 00:23:47;;;;;;;10.43;5.97;;;16.10;81.20;;;;;;6249305;28;20499;-83
2022/04/30 00:26:48;;;;;;;11.30;6.30;;;16.00;81.30;;;;;;6249789;28;20055;-83
2022/04/30 00:29:52;;;;;;;9.27;6.47;;;16.00;81.80;;;;;;6247827;28;20506;-82
2022/04/30 00:32:54;;;;;;;11.68;6.47;;;16.00;81.90;;;;;;6249483;28;20049;-82
2022/04/30 00:36:06;;;;;;;11.70;7.38;;;16.00;82.20;;;;;;6281279;22;20049;-83
2022/04/30 00:39:45;;;;;;;16.98;6.72;;;16.00;82.30;;;;;;6289241;28;20048;-82
2022/04/30 00:46:30;;;;;;;12.07;6.28;;;15.90;82.80;;;;;;6288365;28;20559;-82
2022/04/30 00:49:53;;;;;;;18.10;7.82;;;15.80;82.80;;;;;;6264073;28;20304;-82
2022/04/30 00:56:48;;;;;;;17.75;8.45;;;15.70;83.40;;;;;;6259927;28;20049;-81
2022/04/30 00:59:59;;;;;;;18.90;8.18;;;15.70;83.70;;;;;;6258039;28;20045;-82
2022/04/30 01:03:05;;;;;;;14.07;7.28;;;15.60;83.90;;;;;;6239064;28;20060;-82
2022/04/30 01:06:14;;;;;;;15.02;7.13;;;15.60;84.30;;;;;;6274956;28;20049;-83
2022/04/30 01:09:17;;;;;;;17.45;7.45;;;15.60;84.50;;;;;;6258099;28;20060;-81
2022/04/30 01:12:20;;;;;;;21.10;8.25;;;15.60;84.60;;;;;;6257680;28;20477;-83
2022/04/30 01:15:22;;;;;;;16.55;7.97;;;15.60;84.60;;;;;;6259338;28;20072;-81
2022/04/30 01:18:26;;;;;;;16.38;8.18;;;15.60;84.60;;;;;;6264165;28;20057;-82
2022/04/30 01:21:31;;;;;;;20.00;8.90;;;15.60;84.70;;;;;;6264771;28;20041;-82
2022/04/30 01:24:35;;;;;;;15.60;7.80;;;15.50;85.20;;;;;;6263787;28;20050;-82
2022/04/30 01:27:37;;;;;;;15.15;9.02;;;15.30;85.50;;;;;;6257546;28;20205;-82
2022/04/30 01:30:48;;;;;;;12.75;8.10;;;15.20;85.80;;;;;;6256029;28;20134;-81
2022/04/30 01:37:25;;;;;;;19.92;9.15;;;15.30;86.20;;;;;;6253019;28;20045;-81
2022/04/30 01:40:31;;;;;;;19.65;10.05;;;15.20;86.10;;;;;;6257289;28;20092;-82
2022/04/30 01:43:34;;;;;;;19.83;9.95;;;15.20;86.30;;;;;;6258424;28;20041;-81
2022/04/30 01:46:36;;;;;;;20.77;11.05;;;15.20;86.70;;;;;;6256174;28;20046;-82
2022/04/30 01:49:37;;;;;;;16.92;10.55;;;15.10;87.80;;;;;;6256935;28;20069;-80
2022/04/30 01:52:39;;;;;;;24.20;9.95;;;15.00;87.80;;;;;;6269294;28;20351;-82
2022/04/30 01:55:42;;;;;;;24.42;11.02;;;14.90;88.90;;;;;;6258084;28;20064;-82
2022/04/30 01:58:44;;;;;;;22.77;11.15;;;14.70;90.20;;;;;;6258352;28;20113;-82
2022/04/30 02:01:46;;;;;;;22.52;11.60;;;14.50;90.80;;;;;;6256794;28;20418;-82
2022/04/30 02:04:48;;;;;;;31.45;12.55;;;14.40;91.70;;;;;;6257133;28;20052;-82
2022/04/30 02:07:53;;;;;;;22.98;12.60;;;14.20;92.10;;;;;;6259550;28;20033;-82
2022/04/30 02:10:57;;;;;;;21.58;10.73;;;14.10;92.50;;;;;;6258601;28;20113;-82
2022/04/30 02:14:02;;;;;;;22.35;12.73;;;14.00;92.70;;;;;;6258628;28;20184;-82
2022/04/30 02:17:05;;;;;;;29.90;11.50;;;14.10;93.00;;;;;;6258090;28;20068;-82
2022/04/30 02:20:22;;;;;;;24.27;11.32;;;14.00;92.90;;;;;;6258248;28;20044;-82
2022/04/30 02:23:24;;;;;;;27.55;12.13;;;14.00;93.00;;;;;;6261295;28;20068;-82
2022/04/30 02:26:29;;;;;;;32.83;13.85;;;13.90;93.10;;;;;;6263673;28;20073;-81
2022/04/30 02:29:30;;;;;;;29.13;13.95;;;13.90;93.10;;;;;;6263262;28;20200;-82
2022/04/30 02:32:39;;;;;;;23.67;11.85;;;13.90;93.20;;;;;;6263405;28;20049;-82
2022/04/30 02:35:44;;;;;;;29.48;13.45;;;13.90;93.20;;;;;;6264475;28;20107;-81
2022/04/30 02:38:46;;;;;;;25.85;12.65;;;14.00;93.20;;;;;;6265438;28;20049;-81
2022/04/30 02:41:49;;;;;;;35.00;13.70;;;14.00;93.10;;;;;;6264252;28;20049;-82
2022/04/30 02:44:52;;;;;;;24.92;13.15;;;14.10;93.10;;;;;;6265688;28;20045;-81
2022/04/30 02:47:56;;;;;;;25.60;13.85;;;14.10;93.40;;;;;;6264517;28;20042;-82
2022/04/30 02:51:00;;;;;;;34.60;15.50;;;14.10;93.90;;;;;;6264385;28;20053;-82
2022/04/30 02:54:02;;;;;;;23.95;13.75;;;14.10;94.50;;;;;;6272814;28;20048;-81
2022/04/30 02:57:05;;;;;;;30.02;13.55;;;14.00;94.40;;;;;;6263665;28;20049;-81
2022/04/30 03:00:07;;;;;;;34.50;15.07;;;13.90;94.60;;;;;;6263885;28;20111;-82
2022/04/30 03:03:10;;;;;;;32.65;14.15;;;13.90;94.90;;;;;;6264631;28;20057;-82
2022/04/30 03:06:13;;;;;;;27.33;12.90;;;13.80;95.20;;;;;;6266032;28;20049;-81
2022/04/30 03:09:16;;;;;;;27.70;13.98;;;13.80;95.20;;;;;;6265906;28;20061;-82
2022/04/30 03:12:19;;;;;;;21.60;13.90;;;13.80;95.10;;;;;;6264612;28;20581;-81
2022/04/30 03:15:22;;;;;;;32.55;15.00;;;13.90;95.20;;;;;;6263195;28;20065;-82
2022/04/30 03:21:45;;;;;;;31.20;15.48;;;13.70;95.20;;;;;;6264397;28;20043;-82
2022/04/30 03:24:47;;;;;;;29.30;15.18;;;13.70;95.40;;;;;;6262063;28;20155;-82
2022/04/30 03:27:50;;;;;;;28.65;14.68;;;13.80;95.50;;;;;;6265739;28;20041;-81
2022/04/30 03:30:52;;;;;;;32.70;16.60;;;13.80;95.50;;;;;;6263589;28;20046;-82
2022/04/30 03:33:53;;;;;;;31.60;15.23;;;13.80;95.40;;;;;;6263208;28;20063;-85
2022/04/30 03:41:43;;;;;;;28.23;15.75;;;13.60;95.40;;;;;;6258541;28;20058;-84
2022/04/30 03:44:48;;;;;;;30.67;16.30;;;13.70;95.70;;;;;;6251145;28;20166;-84
2022/04/30 03:47:50;;;;;;;31.08;15.15;;;13.70;95.70;;;;;;6265597;28;20120;-83
2022/04/30 03:50:53;;;;;;;29.10;15.07;;;13.60;96.00;;;;;;6265739;28;20076;-83
2022/04/30 03:53:55;;;;;;;32.05;14.13;;;13.40;96.10;;;;;;6267267;28;20053;-82
2022/04/30 03:56:57;;;;;;;27.75;15.95;;;13.30;96.70;;;;;;6287961;28;20074;-82
2022/04/30 04:00:00;;;;;;;32.83;16.90;;;13.20;96.80;;;;;;6290360;28;20061;-83
2022/04/30 04:03:02;;;;;;;35.00;16.25;;;13.10;96.90;;;;;;6290461;28;20049;-83
2022/04/30 04:06:04;;;;;;;36.28;16.10;;;13.10;97.10;;;;;;6291157;28;20081;-83
2022/04/30 04:09:06;;;;;;;39.72;18.50;;;13.20;97.20;;;;;;6290828;28;20049;-83
2022/04/30 04:12:09;;;;;;;38.05;18.13;;;13.20;97.30;;;;;;6289361;28;20060;-83
2022/04/30 04:18:32;;;;;;;42.00;19.58;;;13.20;97.50;;;;;;6291458;28;20099;-83
2022/04/30 04:21:33;;;;;;;43.75;19.52;;;13.20;97.30;;;;;;6290362;28;20060;-84
2022/04/30 04:27:55;;;;;;;35.53;18.58;;;13.30;97.40;;;;;;6289245;28;20517;-84
2022/04/30 04:30:58;;;;;;;49.08;22.42;;;13.20;97.40;;;;;;6289044;28;20112;-83
2022/04/30 04:34:00;;;;;;;46.38;20.10;;;13.20;97.60;;;;;;6291245;28;20049;-83
2022/04/30 04:37:02;;;;;;;48.20;19.38;;;13.20;97.70;;;;;;6290787;28;20064;-83
2022/04/30 04:40:06;;;;;;;43.20;19.80;;;13.10;98.00;;;;;;6290427;28;20071;-84
2022/04/30 04:43:08;;;;;;;52.63;22.00;;;13.10;98.10;;;;;;6290763;28;20065;-84
2022/04/30 04:46:13;;;;;;;40.55;19.98;;;13.10;98.40;;;;;;6290441;28;20071;-84
2022/04/30 04:49:16;;;;;;;47.00;20.35;;;13.10;98.60;;;;;;6288073;28;20051;-83
2022/04/30 04:52:18;;;;;;;46.90;21.85;;;13.10;98.70;;;;;;6286353;28;20056;-83
2022/04/30 04:55:19;;;;;;;46.75;21.60;;;13.00;98.90;;;;;;6273193;28;20546;-84
2022/04/30 04:58:21;;;;;;;52.60;21.92;;;12.90;99.50;;;;;;6272410;28;20129;-83
2022/04/30 05:01:24;;;;;;;62.20;22.92;;;12.80;99.40;;;;;;6280181;28;20410;-84
2022/04/30 05:04:26;;;;;;;54.60;22.58;;;12.80;99.70;;;;;;6279638;28;20057;-84
2022/04/30 05:07:28;;;;;;;52.75;23.30;;;12.80;99.50;;;;;;6280694;28;20060;-83
2022/04/30 05:10:30;;;;;;;64.90;25.20;;;12.80;99.60;;;;;;6280656;28;20053;-82
2022/04/30 05:13:31;;;;;;;59.47;24.40;;;12.90;99.60;;;;;;6281823;28;20072;-84
2022/04/30 05:16:34;;;;;;;61.85;24.85;;;12.90;99.60;;;;;;6281410;28;20041;-83
2022/04/30 05:19:36;;;;;;;66.80;24.63;;;13.00;99.70;;;;;;6282360;28;20190;-83
2022/04/30 05:22:38;;;;;;;69.72;25.77;;;13.00;99.80;;;;;;6288718;28;20055;-83
2022/04/30 05:25:40;;;;;;;64.85;24.77;;;13.10;99.80;;;;;;6284195;28;20061;-84
2022/04/30 05:28:42;;;;;;;64.68;25.60;;;12.90;99.90;;;;;;6284762;28;20537;-84
2022/04/30 05:31:45;;;;;;;61.28;26.08;;;13.10;99.90;;;;;;6283602;28;20044;-84
2022/04/30 05:34:56;;;;;;;68.97;27.77;;;13.10;99.90;;;;;;6284258;28;20072;-84
2022/04/30 05:38:10;;;;;;;66.85;25.52;;;13.00;99.90;;;;;;6284634;28;20040;-83
2022/04/30 05:41:11;;;;;;;73.72;29.17;;;13.10;99.90;;;;;;6285139;28;20053;-83
2022/04/30 05:44:13;;;;;;;70.43;26.92;;;13.10;99.90;;;;;;6286243;28;20041;-82
2022/04/30 05:47:18;;;;;;;79.70;27.50;;;13.20;99.90;;;;;;6286049;28;20134;-83
2022/04/30 05:50:20;;;;;;;71.10;25.92;;;13.20;99.90;;;;;;6287557;28;20056;-83
2022/04/30 05:53:22;;;;;;;73.15;27.60;;;13.20;99.90;;;;;;6286201;28;20056;-84
2022/04/30 05:56:24;;;;;;;70.47;28.42;;;13.20;99.90;;;;;;6281777;28;20147;-83
2022/04/30 05:59:26;;;;;;;66.22;28.90;;;13.30;99.90;;;;;;6262801;28;20061;-83
2022/04/30 06:02:29;;;;;;;60.72;26.02;;;13.40;99.90;;;;;;6261808;28;20259;-84
2022/04/30 06:05:31;;;;;;;63.83;26.05;;;13.40;99.90;;;;;;6263896;28;20049;-84
2022/04/30 06:08:33;;;;;;;63.97;25.95;;;13.50;99.90;;;;;;6264455;28;20489;-84
2022/04/30 06:11:34;;;;;;;53.90;25.83;;;13.60;99.90;;;;;;6260690;28;20056;-84
2022/04/30 06:14:36;;;;;;;53.20;23.10;;;13.70;99.90;;;;;;6260384;28;20267;-83
2022/04/30 06:17:39;;;;;;;46.33;21.77;;;13.70;99.90;;;;;;6259304;28;20041;-83
2022/04/30 06:20:41;;;;;;;39.60;19.17;;;13.70;99.90;;;;;;6257826;28;20179;-83
2022/04/30 06:23:43;;;;;;;39.38;19.58;;;13.70;99.90;;;;;;6258186;28;20065;-83
2022/04/30 06:26:45;;;;;;;40.33;19.40;;;13.70;99.90;;;;;;6258895;28;20129;-83
2022/04/30 06:29:49;;;;;;;35.63;19.75;;;13.70;99.90;;;;;;6257157;28;20065;-84
2022/04/30 06:32:52;;;;;;;34.38;19.45;;;13.70;99.90;;;;;;6258207;28;20117;-83
2022/04/30 06:35:54;;;;;;;28.55;16.25;;;13.70;99.90;;;;;;6255360;28;20068;-81
2022/04/30 06:38:56;;;;;;;35.67;17.15;;;13.60;99.60;;;;;;6251575;28;20203;-83
2022/04/30 06:41:58;;;;;;;35.80;19.35;;;13.60;99.80;;;;;;6253666;28;20495;-82
2022/04/30 06:45:00;;;;;;;39.67;19.02;;;13.60;99.90;;;;;;6252279;28;20132;-83
2022/04/30 06:48:04;;;;;;;38.25;17.50;;;13.70;99.80;;;;;;6251506;28;20392;-83
2022/04/30 06:51:06;;;;;;;28.45;16.90;;;13.60;99.70;;;;;;6252031;28;20046;-82
2022/04/30 06:57:27;;;;;;;29.13;16.92;;;13.40;99.90;;;;;;6256902;28;20045;-82
2022/04/30 07:04:04;;;;;;;29.90;16.27;;;13.40;99.90;;;;;;6240086;28;20049;-82
2022/04/30 07:07:06;;;;;;;25.67;14.70;;;13.40;99.90;;;;;;6276218;28;20049;-82
2022/04/30 07:10:09;;;;;;;27.73;16.38;;;13.40;99.90;;;;;;6280044;28;20051;-81
2022/04/30 07:13:10;;;;;;;25.35;14.32;;;13.40;99.90;;;;;;6280233;28;20053;-82
2022/04/30 07:16:12;;;;;;;26.58;13.80;;;13.40;99.90;;;;;;6280440;28;20441;-81
2022/04/30 07:19:15;;;;;;;18.52;11.55;;;13.50;99.90;;;;;;6280704;28;20049;-83
2022/04/30 07:22:17;;;;;;;21.45;10.77;;;13.60;99.90;;;;;;6280618;28;20060;-82
2022/04/30 07:25:19;;;;;;;19.70;11.82;;;13.80;99.90;;;;;;6279742;28;20072;-82
2022/04/30 07:28:22;;;;;;;18.20;12.23;;;14.00;99.90;;;;;;6277014;28;20073;-81
2022/04/30 07:31:24;;;;;;;21.15;11.90;;;14.10;99.90;;;;;;6264617;28;20510;-81
2022/04/30 07:34:28;;;;;;;23.23;13.38;;;14.20;99.60;;;;;;6264172;28;20055;-83
2022/04/30 07:37:30;;;;;;;23.95;15.45;;;14.10;99.30;;;;;;6272386;28;20044;-81
2022/04/30 07:40:32;;;;;;;22.38;14.82;;;14.00;99.50;;;;;;6292561;28;20092;-81
2022/04/30 07:43:34;;;;;;;21.55;14.35;;;14.00;99.50;;;;;;6291011;28;20052;-81
2022/04/30 07:46:37;;;;;;;24.13;14.82;;;13.90;99.50;;;;;;6292162;28;20053;-80
2022/04/30 07:49:41;;;;;;;26.77;15.57;;;13.90;99.50;;;;;;6290693;28;20116;-81
2022/04/30 07:52:42;;;;;;;28.67;14.88;;;13.90;99.60;;;;;;6291117;28;20056;-81
2022/04/30 07:55:44;;;;;;;24.25;15.68;;;13.90;99.50;;;;;;6291119;28;20127;-81
2022/04/30 07:58:46;;;;;;;20.67;13.82;;;13.90;99.40;;;;;;6276872;28;20036;-82
2022/04/30 08:01:48;;;;;;;23.88;16.20;;;13.80;99.50;;;;;;6274104;28;20099;-83
2022/04/30 08:04:51;;;;;;;24.80;13.65;;;13.70;99.40;;;;;;6281707;28;20044;-83
2022/04/30 08:07:54;;;;;;;23.95;14.50;;;13.70;99.50;;;;;;6281863;28;20116;-82
2022/04/30 08:10:56;;;;;;;22.17;13.95;;;13.70;99.60;;;;;;6290074;28;20062;-83
2022/04/30 08:13:57;;;;;;;25.40;14.77;;;13.70;99.40;;;;;;6280476;28;20053;-84
2022/04/30 08:16:59;;;;;;;21.63;14.93;;;13.60;99.50;;;;;;6283185;28;20045;-82
2022/04/30 08:20:03;;;;;;;27.63;15.90;;;13.60;99.50;;;;;;6296427;28;20091;-81
2022/04/30 08:23:06;;;;;;;25.10;16.08;;;13.60;99.70;;;;;;6284226;28;20063;-83
2022/04/30 08:26:07;;;;;;;22.98;15.13;;;13.60;99.50;;;;;;6281442;28;20392;-82
2022/04/30 08:29:09;;;;;;;29.33;15.90;;;13.50;99.40;;;;;;6274703;28;20045;-83
2022/04/30 08:32:11;;;;;;;28.10;15.23;;;13.50;99.50;;;;;;6276380;28;20057;-83
2022/04/30 08:35:14;;;;;;;24.95;15.65;;;13.40;99.50;;;;;;6285266;28;20045;-82
2022/04/30 08:38:16;;;;;;;23.02;14.40;;;13.40;99.40;;;;;;6281883;28;20155;-82
2022/04/30 08:41:18;;;;;;;19.35;15.02;;;13.50;99.80;;;;;;6281398;28;20061;-83
2022/04/30 08:44:20;;;;;;;25.27;15.25;;;13.50;99.30;;;;;;6285739;28;20049;-81
2022/04/30 08:47:22;;;;;;;24.00;15.73;;;13.50;99.60;;;;;;6293429;28;20105;-81
2022/04/30 08:50:25;;;;;;;29.35;15.77;;;13.60;99.40;;;;;;6292443;28;20037;-81
2022/04/30 08:53:27;;;;;;;22.35;14.40;;;13.70;99.50;;;;;;6293388;28;20230;-83
2022/04/30 08:56:29;;;;;;;25.90;17.00;;;13.70;99.20;;;;;;6290838;28;20044;-82
2022/04/30 08:59:31;;;;;;;23.05;15.60;;;13.80;99.60;;;;;;6287858;28;20104;-82
2022/04/30 09:02:33;;;;;;;25.02;14.98;;;13.80;99.40;;;;;;6267685;28;20075;-82
2022/04/30 09:05:38;;;;;;;23.02;14.07;;;13.80;99.30;;;;;;6266420;28;20104;-82
2022/04/30 09:08:48;;;;;;;24.63;14.18;;;13.90;98.90;;;;;;6266641;28;20056;-82
2022/04/30 09:11:50;;;;;;;20.90;13.93;;;13.90;98.90;;;;;;6266533;28;20037;-82
2022/04/30 09:14:52;;;;;;;20.58;13.27;;;13.90;99.00;;;;;;6264933;28;20049;-80
2022/04/30 09:17:57;;;;;;;27.05;15.90;;;13.90;98.60;;;;;;6256541;28;20140;-80
2022/04/30 09:21:00;;;;;;;23.88;14.32;;;13.80;98.90;;;;;;6255038;28;20049;-81
2022/04/30 09:24:06;;;;;;;21.45;14.73;;;14.00;98.70;;;;;;6261649;28;20044;-82
2022/04/30 09:27:08;;;;;;;23.80;14.73;;;14.10;98.30;;;;;;6253220;28;20057;-81
2022/04/30 09:30:16;;;;;;;34.55;16.23;;;14.20;98.50;;;;;;6269136;28;20060;-82
2022/04/30 09:33:20;;;;;;;22.50;14.85;;;14.40;98.20;;;;;;6278525;28;20059;-82
2022/04/30 09:39:43;;;;;;;16.90;11.65;;;14.60;97.30;;;;;;6285628;28;20127;-83
2022/04/30 09:42:47;;;;;;;26.23;14.10;;;14.60;97.50;;;;;;6288120;28;20135;-81
2022/04/30 09:45:49;;;;;;;20.10;13.77;;;14.50;97.30;;;;;;6286583;28;20048;-82
2022/04/30 09:55:32;;;;;;;16.70;11.95;;;14.40;97.60;;;;;;6271638;28;20071;-81
2022/04/30 09:58:39;;;;;;;20.25;13.30;;;14.40;97.70;;;;;;6275248;28;20498;-82
2022/04/30 10:01:43;;;;;;;20.38;14.48;;;14.30;97.60;;;;;;6272740;28;20055;-82
2022/04/30 10:04:45;;;;;;;20.52;13.73;;;14.30;97.80;;;;;;6278658;28;20045;-81
2022/04/30 10:07:49;;;;;;;23.70;14.77;;;14.30;98.00;;;;;;6280297;28;20048;-82
2022/04/30 10:10:56;;;;;;;23.98;14.18;;;14.40;97.90;;;;;;6282571;28;20045;-82
2022/04/30 10:14:10;;;;;;;27.38;14.13;;;14.50;98.00;;;;;;6282916;28;20055;-82
2022/04/30 10:17:12;;;;;;;22.08;13.77;;;14.50;97.50;;;;;;6277811;28;20083;-81
2022/04/30 10:20:16;;;;;;;24.52;14.95;;;14.40;97.50;;;;;;6278842;28;20408;-82
2022/04/30 10:23:19;;;;;;;23.88;14.63;;;14.40;97.50;;;;;;6277690;28;20052;-82
2022/04/30 10:26:21;;;;;;;22.02;15.20;;;14.30;97.40;;;;;;6280269;28;20060;-82
2022/04/30 10:29:23;;;;;;;23.52;13.40;;;14.30;97.30;;;;;;6273679;28;20431;-82
2022/04/30 10:32:29;;;;;;;21.55;13.88;;;14.20;97.30;;;;;;6275048;28;20045;-82
2022/04/30 10:35:33;;;;;;;23.13;12.93;;;14.10;97.40;;;;;;6279402;28;20052;-82
2022/04/30 10:38:36;;;;;;;24.45;13.77;;;14.00;97.40;;;;;;6279331;28;20131;-82
2022/04/30 10:41:45;;;;;;;28.13;14.65;;;14.00;97.70;;;;;;6277748;28;20259;-81
2022/04/30 10:44:55;;;;;;;29.60;14.13;;;14.00;97.90;;;;;;6284160;28;20056;-81
2022/04/30 10:47:59;;;;;;;22.23;12.52;;;14.10;97.90;;;;;;6285288;28;20105;-82
2022/04/30 10:51:06;;;;;;;23.27;13.02;;;14.10;97.60;;;;;;6283112;28;20406;-82
2022/04/30 10:54:11;;;;;;;24.10;13.73;;;14.10;97.20;;;;;;6284931;28;20063;-80
2022/04/30 10:57:13;;;;;;;25.15;12.70;;;14.10;97.20;;;;;;6285214;28;20044;-82
2022/04/30 11:00:16;;;;;;;18.02;11.38;;;14.20;97.10;;;;;;6274182;28;20037;-82
2022/04/30 11:03:18;;;;;;;21.77;11.50;;;14.30;96.80;;;;;;6265793;28;20041;-81
2022/04/30 11:06:21;;;;;;;19.83;11.82;;;14.40;96.90;;;;;;6258973;28;20053;-82
2022/04/30 11:09:24;;;;;;;21.50;11.60;;;14.60;96.70;;;;;;6264915;28;20097;-81
2022/04/30 11:12:33;;;;;;;17.92;11.68;;;14.70;96.40;;;;;;6266224;28;20045;-82
2022/04/30 11:15:35;;;;;;;54.78;28.52;;;14.80;96.20;;;;;;6260581;28;20562;-82
2022/04/30 11:18:36;;;;;;;24.65;13.93;;;14.90;96.10;;;;;;6261021;28;20060;-83
2022/04/30 11:21:40;;;;;;;23.75;16.55;;;15.00;95.80;;;;;;6259403;28;20137;-82
2022/04/30 11:24:43;;;;;;;20.58;15.25;;;15.10;95.80;;;;;;6261234;28;20045;-83
2022/04/30 11:27:45;;;;;;;19.40;13.13;;;15.30;95.20;;;;;;6261868;28;20061;-83
2022/04/30 11:30:47;;;;;;;15.88;11.80;;;15.20;94.40;;;;;;6272729;28;20387;-81
2022/04/30 11:33:49;;;;;;;12.63;9.15;;;15.10;94.60;;;;;;6285005;28;20054;-82
2022/04/30 11:36:52;;;;;;;13.52;9.10;;;15.10;94.90;;;;;;6276820;28;20463;-82
2022/04/30 11:39:55;;;;;;;13.40;9.73;;;15.00;94.50;;;;;;6264969;28;20037;-82
2022/04/30 11:42:58;;;;;;;13.95;10.25;;;15.00;94.60;;;;;;6268676;28;20069;-82
2022/04/30 11:46:00;;;;;;;14.52;9.40;;;14.90;94.60;;;;;;6269322;28;20057;-82
2022/04/30 11:49:08;;;;;;;16.92;10.73;;;14.90;94.90;;;;;;6268050;28;20107;-82
2022/04/30 11:52:10;;;;;;;15.95;10.40;;;15.00;94.60;;;;;;6269363;28;20057;-82
2022/04/30 11:55:13;;;;;;;17.70;9.95;;;14.90;94.30;;;;;;6287112;28;20075;-82
2022/04/30 11:58:15;;;;;;;15.10;10.48;;;15.00;95.00;;;;;;6291113;28;20056;-82
2022/04/30 12:01:22;;;;;;;16.70;11.43;;;15.20;94.90;;;;;;6280093;28;20055;-82
2022/04/30 12:04:24;;;;;;;14.38;9.43;;;15.30;94.20;;;;;;6277467;28;20041;-82
2022/04/30 12:07:36;;;;;;;18.27;11.07;;;15.40;93.70;;;;;;6283640;28;20045;-82
2022/04/30 12:10:40;;;;;;;13.10;11.35;;;15.50;93.70;;;;;;6285818;28;20102;-81
2022/04/30 12:13:42;;;;;;;13.57;9.85;;;15.80;93.80;;;;;;6287562;28;20049;-82
2022/04/30 12:16:45;;;;;;;14.40;9.52;;;16.20;93.40;;;;;;6285906;28;20126;-82
2022/04/30 12:26:28;;;;;;;11.82;8.25;;;16.20;90.70;;;;;;6288329;28;20049;-81
2022/04/30 12:29:32;;;;;;;13.15;8.05;;;16.00;92.30;;;;;;6274051;28;20045;-82
2022/04/30 12:32:34;;;;;;;16.20;8.30;;;16.00;92.60;;;;;;6283686;28;20045;-83
2022/04/30 12:35:38;;;;;;;11.40;7.78;;;16.10;92.50;;;;;;6286708;28;20045;-79
2022/04/30 12:38:40;;;;;;;14.85;9.48;;;16.10;92.50;;;;;;6285311;28;20048;-79
2022/04/30 12:41:43;;;;;;;14.70;9.02;;;16.10;91.70;;;;;;6287273;28;20100;-83
2022/04/30 12:44:45;;;;;;;16.92;9.20;;;16.00;91.30;;;;;;6277712;28;20103;-81
2022/04/30 12:47:46;;;;;;;16.42;10.35;;;16.00;92.00;;;;;;6284091;28;20045;-83
2022/04/30 12:50:48;;;;;;;13.65;9.85;;;16.20;91.60;;;;;;6273363;28;20037;-81
2022/04/30 12:53:50;;;;;;;23.58;13.63;;;16.50;91.00;;;;;;6270687;28;20049;-82
2022/04/30 12:56:56;;;;;;;15.13;9.98;;;16.70;91.00;;;;;;6281466;28;20040;-82
2022/04/30 12:59:57;;;;;;;19.55;9.85;;;17.10;90.80;;;;;;6282614;28;20097;-82
2022/04/30 13:02:59;;;;;;;14.10;8.82;;;17.40;87.30;;;;;;6274604;28;20055;-84
2022/04/30 13:06:02;;;;;;;13.55;8.20;;;17.50;86.10;;;;;;6280154;28;20489;-83
2022/04/30 13:15:45;;;;;;;12.35;8.70;;;18.30;84.30;;;;;;6277515;28;20033;-83
2022/04/30 13:18:47;;;;;;;14.35;8.88;;;18.00;83.40;;;;;;6279279;28;20045;-82
2022/04/30 13:21:49;;;;;;;12.02;7.80;;;17.90;83.70;;;;;;6282637;28;20568;-82
2022/04/30 13:24:51;;;;;;;11.13;7.55;;;17.80;85.30;;;;;;6278281;28;20049;-82
2022/04/30 13:27:55;;;;;;;14.25;6.18;;;18.00;84.20;;;;;;6284646;28;20071;-83
2022/04/30 13:30:57;;;;;;;10.52;6.80;;;18.30;85.30;;;;;;6272750;28;20052;-81
2022/04/30 13:33:59;;;;;;;10.98;7.20;;;18.70;84.10;;;;;;6275122;28;20081;-82
2022/04/30 13:37:03;;;;;;;13.00;5.72;;;18.90;82.20;;;;;;6258369;28;20115;-82
2022/04/30 13:40:06;;;;;;;15.43;6.50;;;18.90;81.20;;;;;;6256751;28;20041;-81
2022/04/30 13:43:10;;;;;;;7.43;5.80;;;19.10;79.00;;;;;;6261713;28;20114;-80
2022/04/30 13:46:11;;;;;;;8.00;5.82;;;19.10;80.00;;;;;;6257054;28;20045;-81
2022/04/30 13:49:13;;;;;;;8.00;5.93;;;19.10;78.90;;;;;;6253719;28;20049;-82
2022/04/30 13:52:15;;;;;;;7.78;6.00;;;18.80;80.20;;;;;;6254097;28;20045;-80
2022/04/30 13:55:17;;;;;;;7.18;5.68;;;18.50;81.00;;;;;;6256509;28;20045;-80
2022/04/30 13:58:20;;;;;;;10.85;7.50;;;18.60;80.60;;;;;;6258432;28;20049;-79
2022/04/30 14:01:22;;;;;;;7.43;5.97;;;18.40;78.50;;;;;;6268798;28;20510;-79
2022/04/30 14:04:23;;;;;;;10.75;6.28;;;18.40;80.30;;;;;;6270455;28;20144;-79
2022/04/30 14:07:26;;;;;;;11.35;6.90;;;18.50;80.00;;;;;;6278876;28;20101;-81
2022/04/30 14:10:28;;;;;;;11.20;7.75;;;18.40;79.20;;;;;;6282685;28;20045;-81
2022/04/30 14:16:50;;;;;;;6.88;4.57;;;18.20;80.80;;;;;;6281954;28;20048;-81
2022/04/30 14:19:52;;;;;;;7.65;5.05;;;18.10;79.10;;;;;;6286109;28;20048;-83
2022/04/30 14:22:54;;;;;;;7.72;4.70;;;18.10;81.50;;;;;;6284734;28;20049;-81
2022/04/30 14:25:56;;;;;;;7.30;4.40;;;18.20;80.30;;;;;;6288778;28;20613;-82
2022/04/30 14:28:59;;;;;;;6.70;4.85;;;17.90;81.10;;;;;;6291790;28;20056;-82
2022/04/30 14:32:01;;;;;;;6.57;4.57;;;18.10;80.90;;;;;;6274649;28;20049;-83
2022/04/30 14:35:04;;;;;;;6.93;5.32;;;18.30;81.60;;;;;;6267104;28;20123;-82
2022/04/30 14:38:08;;;;;;;6.32;4.30;;;18.60;80.70;;;;;;6260914;28;20103;-79
2022/04/30 14:41:10;;;;;;;8.23;4.97;;;18.80;79.20;;;;;;6266034;28;20056;-82
2022/04/30 14:44:13;;;;;;;6.88;4.72;;;18.80;76.40;;;;;;6268341;28;20053;-82
2022/04/30 14:47:15;;;;;;;6.75;4.80;;;18.60;77.60;;;;;;6267925;28;20367;-82
2022/04/30 14:50:17;;;;;;;7.55;5.68;;;18.70;78.80;;;;;;6266064;28;20129;-82
2022/04/30 14:53:19;;;;;;;6.07;4.60;;;18.80;79.30;;;;;;6267180;28;20511;-81
2022/04/30 14:56:22;;;;;;;8.63;4.93;;;19.00;78.30;;;;;;6267017;28;20558;-82
2022/04/30 14:59:26;;;;;;;7.50;3.88;;;19.40;75.80;;;;;;6275232;28;20041;-83
2022/04/30 15:02:27;;;;;;;6.28;4.50;;;19.60;74.20;;;;;;6288550;28;20049;-81
2022/04/30 15:05:30;;;;;;;8.45;5.40;;;19.40;73.80;;;;;;6290344;28;20053;-83
2022/04/30 15:08:31;;;;;;;7.50;4.95;;;19.10;74.00;;;;;;6293351;28;20053;-83
2022/04/30 15:11:33;;;;;;;8.23;5.03;;;18.70;77.70;;;;;;6298101;28;20049;-82
2022/04/30 15:14:36;;;;;;;8.85;5.93;;;18.60;75.80;;;;;;6296812;28;20075;-82
2022/04/30 15:17:38;;;;;;;9.43;5.53;;;18.30;75.40;;;;;;6295929;28;20139;-82
2022/04/30 15:20:40;;;;;;;8.02;5.90;;;17.90;75.90;;;;;;6294891;28;20407;-80
2022/04/30 15:23:41;;;;;;;8.23;5.13;;;17.70;77.80;;;;;;6294427;28;20044;-81
2022/04/30 15:26:43;;;;;;;10.90;6.47;;;17.60;78.70;;;;;;6292303;28;20478;-81
2022/04/30 15:29:47;;;;;;;9.98;5.35;;;17.70;80.20;;;;;;6279398;28;20061;-82
2022/04/30 15:32:49;;;;;;;9.82;5.53;;;17.50;77.60;;;;;;6291164;28;20041;-82
2022/04/30 15:35:51;;;;;;;7.63;5.18;;;17.40;80.80;;;;;;6294949;28;20434;-82
2022/04/30 15:38:53;;;;;;;9.57;6.13;;;17.50;81.70;;;;;;6292869;28;20049;-81
2022/04/30 15:41:55;;;;;;;8.50;5.28;;;17.60;81.20;;;;;;6291263;28;20045;-82
2022/04/30 15:44:58;;;;;;;9.07;5.13;;;17.60;78.70;;;;;;6292123;28;20064;-82
2022/04/30 15:51:32;;;;;;;9.30;6.07;;;17.60;79.30;;;;;;6282261;28;20422;-83
2022/04/30 15:54:34;;;;;;;9.18;5.85;;;17.80;79.60;;;;;;6275737;28;20072;-80
2022/04/30 15:57:36;;;;;;;7.47;5.25;;;18.00;79.10;;;;;;6270296;28;20045;-80
2022/04/30 16:00:39;;;;;;;10.00;5.30;;;18.30;78.20;;;;;;6259880;28;20507;-79
2022/04/30 16:03:41;;;;;;;8.07;5.03;;;18.10;76.00;;;;;;6276147;28;20408;-79
2022/04/30 16:06:43;;;;;;;8.40;5.45;;;17.70;76.10;;;;;;6276092;28;20431;-81
2022/04/30 16:09:44;;;;;;;8.90;6.45;;;17.30;77.70;;;;;;6283293;28;20494;-81
2022/04/30 16:12:46;;;;;;;9.15;5.63;;;17.20;79.10;;;;;;6286429;28;20063;-80
2022/04/30 16:15:50;;;;;;;10.50;5.78;;;17.20;78.80;;;;;;6285716;28;20167;-81
2022/04/30 16:18:52;;;;;;;13.35;7.38;;;17.00;77.50;;;;;;6284916;28;20052;-81
2022/04/30 16:21:55;;;;;;;11.45;6.97;;;16.40;78.70;;;;;;6280676;28;20363;-80
2022/04/30 16:24:57;;;;;;;10.70;6.38;;;16.10;80.60;;;;;;6281821;28;20045;-79
2022/04/30 16:27:59;;;;;;;10.25;7.18;;;15.90;80.70;;;;;;6277062;28;20041;-81
2022/04/30 16:31:02;;;;;;;13.25;8.63;;;15.90;82.50;;;;;;6282079;28;20142;-80
2022/04/30 16:34:03;;;;;;;9.35;6.18;;;16.00;82.00;;;;;;6287672;28;20132;-80
2022/04/30 16:37:05;;;;;;;9.55;6.25;;;16.10;82.20;;;;;;6287967;28;20091;-79
2022/04/30 16:40:08;;;;;;;10.80;6.57;;;16.10;81.20;;;;;;6285376;28;20044;-81